Terminal Aerodrome Forecast
Issued by NWS

Home | Current Version | Previous Version | Text Only | Print | Product List | Glossary On
Versions: 1 2 3 4 5 6 7 8 9 10 11 12 13 14 15 16
138
FTUS44 KJAN 221120
TAFHKS
TAF
KHKS 221120Z 2212/2312 12003KT 5SM BR BKN030
     FM221400 VRB03KT P6SM SCT030 SCT250
     FM222100 25005KT P6SM VCTS BKN040CB BKN100
     FM230000 VRB03KT P6SM FEW100 BKN250=

USA.gov is the U.S. government's official web portal to all federal, state and local government web resources and services.